• Join FlightAware (Why Join?)
  • Login
  • US Flag 
12:47PM EDT


 

Airport Tracker/Info


-or-


 

Live Flight TrackerFlight Track Log ✈ DAL1912 ✈ 04-May-2013 ✈ KSLC - KATL

Flight Track Log - Related Links

Times and Time Zones

All times are in EDT time to prevent confusion due to time zone crossing. See the DAL1912 flight status page for this flight to view local times or setup timezone preferences in your user account.

Time Position Orientation Groundspeed Altitude Reporting Facility
EDT Latitude Longitude Course Direction KTS MPH feet Rate Location/Type
01:20PM 40.8056 -111.9628 158° South 182 209 5,000  Level Salt Lake Center
01:21PM 40.8606 -111.9694 355° North 220 253 6,700 1,800 Climbing Salt Lake Center
01:22PM 40.8864 -111.9728 354° North 228 262 7,500 2,640 Climbing Salt Lake Center
01:22PM 40.9314 -111.9794 354° North 257 296 9,400 2,940 Climbing Salt Lake Center
01:23PM 41.1314 -111.9198 51° Northeast  Level FlightAware Approximate
01:23PM 40.9592 -111.9839 353° North 258 297 10,500  Level Salt Lake Center
01:24PM 41.1102 -111.7632 158° South  Level FlightAware Approximate
01:24PM 41.0233 -111.9481 23° Northeast 279 321 12,900  Level Salt Lake Center
01:25PM 40.9929 -111.7005 158° South  Level FlightAware Approximate
01:25PM 40.9914 -111.8553 114° Southeast 315 362 14,000  Level Salt Lake Center
01:26PM 40.8755 -111.6380 158° South  Level FlightAware Approximate
01:26PM 40.9258 -111.7572 131° Southeast 367 422 15,300  Level Salt Lake Center
01:27PM 40.8583 -111.6458 129° Southeast 389 448 17,700 2,280 Climbing Salt Lake Center
01:28PM 40.8106 -111.4764 110° East 417 480 20,000 2,040 Climbing Salt Lake Center
01:29PM 40.7772 -111.3233 106° East 435 501 21,900 1,620 Climbing Salt Lake Center
01:30PM 40.7417 -111.1675 107° East 442 509 23,400 1,440 Climbing Salt Lake Center
01:31PM 40.7044 -111.0042 107° East 459 528 24,900 1,440 Climbing Salt Lake Center
01:32PM 40.6650 -110.8367 107° East 476 548 26,400 1,260 Climbing Salt Lake Center
01:33PM 40.6258 -110.6675 107° East 483 556 27,600 1,200 Climbing Salt Lake Center
01:34PM 40.5792 -110.4658 107° East 502 578 28,900 1,320 Climbing Salt Lake Center
01:35PM 40.5392 -110.2969 107° East 505 581 30,400 1,260 Climbing Salt Lake Center
01:36PM 40.5056 -110.1250 104° East 508 585 31,500 1,260 Climbing Salt Lake Center
01:37PM 40.4675 -109.9222 104° East 511 588 33,100 1,260 Climbing Salt Lake Center
01:38PM 40.4353 -109.7503 104° East 508 585 34,200 900 Climbing Salt Lake Center
01:39PM 40.3961 -109.5486 104° East 511 588 35,000 360 Climbing Salt Lake Center
01:40PM 40.3608 -109.3750 105° East 514 592 35,000  Level Salt Lake Center
01:41PM 40.3211 -109.1692 104° East 518 596 35,000  Level Salt Lake Center
01:42PM 40.2861 -108.9956 105° East 515 593 35,000  Level Salt Lake Center
01:43PM 40.2514 -108.8186 104° East 515 593 35,000  Level Denver Center
01:44PM 40.2167 -108.6447 105° East 512 589 35,000  Level Denver Center
01:45PM 40.1761 -108.4444 105° East 511 588 35,000  Level Salt Lake Center
01:46PM 40.1403 -108.2700 105° East 509 586 35,000  Level Denver Center
01:47PM 40.1031 -108.0969 106° East 513 590 35,000  Level Denver Center
01:48PM 40.0583 -107.8964 106° East 515 593 35,000  Level Denver Center
01:49PM 40.0056 -107.7317 113° Southeast 512 589 35,000  Level Denver Center
01:50PM 39.9428 -107.5392 113° Southeast 514 592 35,000  Level Denver Center
01:51PM 39.8883 -107.3750 113° Southeast 514 592 35,000  Level Denver Center
01:52PM 39.8250 -107.1844 113° Southeast 513 590 35,000  Level Denver Center
01:53PM 39.7775 -107.0392 113° Southeast 511 588 35,000  Level Denver Center
01:54PM 39.7194 -106.8661 114° Southeast 514 592 35,000  Level Denver Center
01:55PM 39.6550 -106.6681 113° Southeast 511 588 35,000  Level Denver Center
01:56PM 39.5869 -106.4917 117° Southeast 510 587 35,000  Level Denver Center
01:57PM 39.4983 -106.3458 128° Southeast 509 586 35,000  Level Denver Center
01:59PM 39.4258 -106.1878 121° Southeast 516 594 35,000  Level Denver Center
02:00PM 39.3822 -106.0161 108° East 515 593 35,000  Level Denver Center
02:01PM 39.3386 -105.8383 108° East 515 593 35,000  Level Denver Center
02:02PM 39.2950 -105.6592 107° East 518 596 35,000  Level Denver Center
02:03PM 39.2514 -105.4831 108° East 513 590 35,000  Level Denver Center
02:04PM 39.2000 -105.2781 108° East 512 589 35,000  Level Denver Center
02:05PM 39.1553 -105.1036 108° East 512 589 35,000  Level Denver Center
02:06PM 39.1106 -104.9283 108° East 513 590 35,000  Level Denver Center
02:07PM 39.0661 -104.7544 108° East 511 588 35,000  Level Denver Center
02:08PM 39.0219 -104.5806 108° East 511 588 35,000  Level Denver Center
02:09PM 38.9750 -104.4058 109° East 514 592 35,000  Level Denver Center
02:10PM 38.9278 -104.2325 109° East 512 589 35,000  Level Denver Center
02:11PM 38.8725 -104.0275 109° East 517 595 35,000  Level Denver Center
02:12PM 38.8247 -103.8506 109° East 518 596 35,000  Level Denver Center
02:13PM 38.7783 -103.6831 110° East 518 596 35,000  Level Denver Center
02:14PM 38.7319 -103.5158 110° East 519 597 35,000  Level Denver Center
02:15PM 38.6808 -103.3261 109° East 514 592 35,000  Level Denver Center
02:16PM 38.6311 -103.1503 110° East 521 600 35,000  Level Denver Center
02:17PM 38.5808 -102.9731 110° East 526 605 35,000  Level Denver Center
02:18PM 38.5278 -102.7883 110° East 519 597 35,000  Level Denver Center
02:19PM 38.4811 -102.6217 110° East 521 600 35,000  Level Denver Center
02:20PM 38.4258 -102.4283 110° East 521 600 35,000  Level Denver Center
02:21PM 38.3772 -102.2647 111° Southeast 515 593 35,000  Level Denver Center
02:22PM 38.3225 -102.0728 110° East 515 593 35,000  Level Denver Center
02:23PM 38.2747 -101.9086 110° East 518 596 35,000  Level Denver Center
02:24PM 38.2181 -101.7167 111° Southeast 518 596 35,000  Level Denver Center
02:25PM 38.1694 -101.5522 111° Southeast 518 596 35,000  Level Denver Center
02:26PM 38.1200 -101.3889 111° Southeast 518 596 35,000  Level Denver Center
02:27PM 38.0633 -101.1978 111° Southeast 517 595 35,000  Level Denver Center
02:28PM 38.0142 -101.0353 111° Southeast 514 592 35,000  Level Denver Center
02:29PM 37.9639 -100.8711 111° Southeast 515 593 35,000  Level Denver Center
02:30PM 37.9306 -100.7611 111° Southeast 514 592 35,000  Level Kansas City Center
02:31PM 37.8811 -100.5964 111° Southeast 515 593 35,000  Level Kansas City Center
02:32PM 37.8286 -100.4336 112° Southeast 517 595 35,000 240 Level Kansas City Center
02:33PM 37.7694 -100.2464 112° Southeast 513 590 35,600 780 Climbing Kansas City Center
02:34PM 37.7203 -100.0906 112° Southeast 503 579 36,600 660 Climbing Kansas City Center
02:35PM 37.6631 -99.9072 111° Southeast 502 578 37,000 180 Climbing Kansas City Center
02:36PM 37.6144 -99.7497 111° Southeast 503 579 37,000  Level Kansas City Center
02:37PM 37.5647 -99.5906 111° Southeast 508 585 37,000  Level Kansas City Center
02:38PM 37.5119 -99.4317 113° Southeast 512 589 37,000  Level Kansas City Center
02:39PM 37.4475 -99.2314 112° Southeast 515 593 37,000  Level Kansas City Center
02:40PM 37.3939 -99.0675 112° Southeast 511 588 37,000  Level Kansas City Center
02:41PM 37.3411 -98.9056 112° Southeast 507 583 37,000  Level Kansas City Center
02:42PM 37.2867 -98.7439 113° Southeast 504 580 37,000  Level Kansas City Center
02:43PM 37.2322 -98.5839 113° Southeast 504 580 37,000  Level Kansas City Center
02:44PM 37.1789 -98.4233 113° Southeast 502 578 37,000  Level Kansas City Center
02:45PM 37.1258 -98.2653 113° Southeast 498 573 37,000  Level Kansas City Center
02:46PM 37.0611 -98.0739 113° Southeast 497 572 37,000  Level Kansas City Center
02:47PM 37.0072 -97.9131 113° Southeast 502 578 37,000 240 Level Kansas City Center
02:48PM 36.9531 -97.7550 113° Southeast 500 575 37,500 600 Climbing Kansas City Center
02:49PM 36.8994 -97.5964 113° Southeast 498 573 38,300 720 Climbing Kansas City Center
02:50PM 36.8647 -97.4300 105° East 501 577 39,000 300 Climbing Kansas City Center
02:51PM 36.8303 -97.2597 104° East 501 577 39,000  Level Kansas City Center
02:52PM 36.7911 -97.0964 107° East 496 571 39,000  Level Kansas City Center
02:53PM 36.7553 -96.9350 105° East 487 560 39,000  Level Kansas City Center
02:54PM 36.7117 -96.7381 105° East 489 563 39,000  Level Kansas City Center
02:56PM 36.6758 -96.5733 105° East 493 567 39,000  Level Kansas City Center
02:57PM 36.6397 -96.4103 105° East 489 563 39,000  Level Kansas City Center
02:58PM 36.6047 -96.2492 105° East 484 557 39,000  Level Kansas City Center
02:59PM 36.5681 -96.0872 106° East 486 559 39,000  Level Kansas City Center
03:00PM 36.5317 -95.9261 106° East 484 557 39,000  Level Kansas City Center
03:01PM 36.4950 -95.7650 106° East 483 556 39,000  Level Kansas City Center
03:02PM 36.4589 -95.6069 106° East 484 557 39,000  Level Kansas City Center
03:03PM 36.4217 -95.4486 106° East 482 555 39,000  Level Kansas City Center
03:04PM 36.3772 -95.2572 106° East 481 554 39,000  Level Kansas City Center
03:05PM 36.3414 -95.0992 106° East 479 551 39,000  Level Kansas City Center
03:06PM 36.3067 -94.9506 106° East 482 555 39,000  Level Kansas City Center
03:07PM 36.2689 -94.7908 106° East 483 556 39,000  Level Kansas City Center
03:08PM 36.2308 -94.6314 106° East 482 555 39,000  Level Kansas City Center
03:08PM 36.2075 -94.5367 107° East 485 558 39,000  Level Memphis Center
03:09PM 36.1728 -94.3833 106° East 475 547 39,000  Level Memphis Center
03:10PM 36.1319 -94.2244 108° East 475 547 39,000  Level Memphis Center
03:11PM 36.0950 -94.0686 106° East 475 547 39,000  Level Memphis Center
03:12PM 36.0558 -93.9156 108° East 470 541 39,000  Level Memphis Center
03:13PM 36.0164 -93.7572 107° East 470 541 39,000  Level Memphis Center
03:14PM 35.9789 -93.6017 107° East 470 541 39,000  Level Memphis Center
03:15PM 35.9411 -93.4464 107° East 470 541 39,000  Level Memphis Center
03:16PM 35.9011 -93.2911 108° East 470 541 39,000  Level Memphis Center
03:17PM 35.8631 -93.1336 107° East 470 541 39,000  Level Memphis Center
03:18PM 35.8303 -93.0069 108° East 470 541 39,000  Level Memphis Center
03:19PM 35.7881 -92.8342 107° East 470 541 39,000  Level Memphis Center
03:20PM 35.7472 -92.6822 108° East 470 541 39,000  Level Memphis Center
03:21PM 35.7061 -92.5275 108° East 470 541 39,000  Level Memphis Center
03:22PM 35.6669 -92.3758 108° East 470 541 39,000  Level Memphis Center
03:23PM 35.6275 -92.2217 107° East 470 541 39,000  Level Memphis Center
03:24PM 35.5881 -92.0675 107° East 470 541 39,000  Level Memphis Center
03:25PM 35.5464 -91.9111 108° East 470 541 39,000  Level Memphis Center
03:26PM 35.5044 -91.7547 108° East 475 547 39,000  Level Memphis Center
03:27PM 35.4622 -91.5983 108° East 475 547 39,000  Level Memphis Center
03:28PM 35.4219 -91.4425 108° East 475 547 39,000  Level Memphis Center
03:29PM 35.3814 -91.2917 108° East 475 547 39,000  Level Memphis Center
03:30PM 35.3386 -91.1383 109° East 475 547 39,000  Level Memphis Center
03:31PM 35.2958 -90.9856 109° East 475 547 39,000  Level Memphis Center
03:32PM 35.2547 -90.8300 108° East 470 541 39,000  Level Memphis Center
03:33PM 35.2114 -90.6772 109° East 470 541 39,000  Level Memphis Center
03:34PM 35.1700 -90.5247 108° East 470 541 39,000  Level Memphis Center
03:35PM 35.1264 -90.3697 109° East 475 547 39,000  Level Memphis Center
03:36PM 35.0781 -90.1997 109° East 475 547 39,000  Level Memphis Center
03:37PM 35.0342 -90.0450 109° East 481 554 39,000  Level Memphis Center
03:38PM 35.0044 -89.8806 102° East 487 560 39,000  Level Memphis Center
03:39PM 34.9786 -89.7133 101° East 487 560 39,000  Level Memphis Center
03:40PM 34.9567 -89.5614 100° East 503 579 39,000  Level Memphis Center
03:41PM 34.9306 -89.3997 101° East 495 570 39,000  Level Memphis Center
03:42PM 34.9064 -89.2431 101° East 483 556 39,000  Level Memphis Center
03:43PM 34.8819 -89.0811 100° East 478 550 39,000  Level Memphis Center
03:44PM 34.8550 -88.9222 102° East 478 550 39,000  Level Memphis Center
03:45PM 34.8300 -88.7506 100° East 478 550 39,000  Level Memphis Center
03:46PM 34.8050 -88.5942 101° East 478 550 39,000  Level Memphis Center
03:47PM 34.7797 -88.4381 101° East 478 550 39,000  Level Memphis Center
03:48PM 34.7561 -88.2767 100° East 473 544 39,000  Level Memphis Center
03:49PM 34.7283 -88.1108 101° East 493 567 39,000  Level Memphis Center
03:50PM 34.7064 -87.9497 99° East 493 567 39,000 -60 Level Memphis Center
03:51PM 34.6761 -87.7914 103° East 481 554 38,900 -1,260 Descending Memphis Center
03:52PM 34.6500 -87.6356 101° East 481 554 36,500 -2,700 Descending Memphis Center
03:53PM 34.6208 -87.4650 102° East 501 577 33,600 -1,560 Descending Memphis Center
03:55PM 34.5889 -87.2683 101° East 485 558 33,000 -300 Descending Atlanta Center
03:56PM 34.5575 -87.1108 104° East 479 551 33,000  Level Atlanta Center
03:57PM 34.5278 -86.9558 103° East 474 545 33,000 -300 Level Atlanta Center
03:58PM 34.4981 -86.8011 103° East 474 545 32,500 -780 Descending Atlanta Center
03:59PM 34.4681 -86.6439 103° East 474 545 31,500 -1,140 Descending Atlanta Center
04:00PM 34.4378 -86.4894 103° East 474 545 30,300 -1,260 Descending Atlanta Center
04:01PM 34.4094 -86.3350 102° East 469 540 29,000 -1,500 Descending Atlanta Center
04:02PM 34.3808 -86.1908 103° East 463 533 27,400 -1,800 Descending Atlanta Center
04:03PM 34.3517 -86.0517 104° East 442 509 25,400 -1,680 Descending Atlanta Center
04:04PM 34.3247 -85.9203 104° East 418 481 24,100 -1,200 Descending Atlanta Center
04:05PM 34.3036 -85.7964 102° East 397 457 23,000 -1,380 Descending Atlanta Center
04:06PM 34.2803 -85.6728 103° East 374 430 21,400 -1,620 Descending Atlanta Center
04:07PM 34.2525 -85.5542 106° East 366 421 19,800 -1,500 Descending Atlanta Center
04:08PM 34.2289 -85.4358 104° East 361 415 18,400 -1,320 Descending Atlanta Center
04:09PM 34.2092 -85.3300 103° East 341 392 17,200 -1,320 Descending Atlanta Center
04:10PM 34.1872 -85.2292 105° East 322 371 15,800 -1,320 Descending Atlanta Center
04:11PM 34.1631 -85.1283 106° East 308 354 14,600 -1,200 Descending Atlanta Center
04:12PM 34.1197 -85.0625 128° Southeast 292 336 13,500 -840 Descending Atlanta Center
04:13PM 34.0639 -84.9942 135° Southeast 282 325 13,000 -900 Descending Atlanta Center
04:14PM 33.9994 -84.9783 168° South 249 287 11,800 -1,380 Descending Atlanta Center
04:15PM 33.9264 -84.9675 173° South 249 287 10,300 -1,020 Descending Atlanta Center
04:16PM 33.8597 -84.9594 174° South 254 292 9,800 -600 Descending Atlanta Center
04:17PM 33.7908 -84.9486 173° South 254 292 9,100 -1,020 Descending Atlanta Center
04:18PM 33.7283 -84.9256 163° South 248 285 7,800 -1,080 Descending Atlanta Center
04:19PM 33.6722 -84.9000 159° South 225 259 7,000 -600 Descending Atlanta Center
04:20PM 33.6333 -84.8000 115° Southeast 209 241 6,400 -480 Descending Atlanta TRACON
04:21PM 33.6333 -84.7333 90° East 211 243 5,800 -960 Descending Atlanta TRACON
04:23PM 33.6333 -84.6000 90° East 191 220 3,600 -1,140 Descending Atlanta TRACON